sensor_id;sensor_type;location;lat;lon;timestamp;temperature;humidity
56076;DHT22;41951;49.022;12.066;2023-03-01T00:02:19;1.30;99.90
56076;DHT22;41951;49.022;12.066;2023-03-01T00:04:45;1.30;99.90
56076;DHT22;41951;49.022;12.066;2023-03-01T00:07:10;1.30;99.90
56076;DHT22;41951;49.022;12.066;2023-03-01T00:09:36;1.40;99.90
56076;DHT22;41951;49.022;12.066;2023-03-01T00:12:03;1.30;99.90
56076;DHT22;41951;49.022;12.066;2023-03-01T00:14:28;1.30;99.90
56076;DHT22;41951;49.022;12.066;2023-03-01T00:16:54;1.30;99.90
56076;DHT22;41951;49.022;12.066;2023-03-01T00:19:20;1.30;99.90
56076;DHT22;41951;49.022;12.066;2023-03-01T00:21:47;1.30;99.90
56076;DHT22;41951;49.022;12.066;2023-03-01T00:24:13;1.20;99.90
56076;DHT22;41951;49.022;12.066;2023-03-01T00:26:39;1.20;99.90
56076;DHT22;41951;49.022;12.066;2023-03-01T00:29:04;1.20;99.90
56076;DHT22;41951;49.022;12.066;2023-03-01T00:31:32;1.20;99.90
56076;DHT22;41951;49.022;12.066;2023-03-01T00:34:01;1.10;99.90
56076;DHT22;41951;49.022;12.066;2023-03-01T00:36:34;1.10;99.90
56076;DHT22;41951;49.022;12.066;2023-03-01T00:39:01;1.10;99.90
56076;DHT22;41951;49.022;12.066;2023-03-01T00:41:26;1.10;99.90
56076;DHT22;41951;49.022;12.066;2023-03-01T00:43:53;1.80;99.90
56076;DHT22;41951;49.022;12.066;2023-03-01T00:46:21;1.00;99.90
56076;DHT22;41951;49.022;12.066;2023-03-01T00:48:47;1.10;99.90
56076;DHT22;41951;49.022;12.066;2023-03-01T00:53:39;1.10;99.90
56076;DHT22;41951;49.022;12.066;2023-03-01T00:56:06;1.00;99.90
56076;DHT22;41951;49.022;12.066;2023-03-01T00:58:32;1.00;99.90
56076;DHT22;41951;49.022;12.066;2023-03-01T01:00:58;1.00;99.90
56076;DHT22;41951;49.022;12.066;2023-03-01T01:03:24;1.10;99.90
56076;DHT22;41951;49.022;12.066;2023-03-01T01:05:54;1.00;99.90
56076;DHT22;41951;49.022;12.066;2023-03-01T01:08:20;1.10;99.90
56076;DHT22;41951;49.022;12.066;2023-03-01T01:10:47;1.00;99.90
56076;DHT22;41951;49.022;12.066;2023-03-01T01:13:13;1.00;99.90
56076;DHT22;41951;49.022;12.066;2023-03-01T01:15:39;1.00;99.90
56076;DHT22;41951;49.022;12.066;2023-03-01T01:18:05;1.00;99.90
56076;DHT22;41951;49.022;12.066;2023-03-01T01:20:31;1.00;99.90
56076;DHT22;41951;49.022;12.066;2023-03-01T01:22:57;1.00;99.90
56076;DHT22;41951;49.022;12.066;2023-03-01T01:25:23;1.00;99.90
56076;DHT22;41951;49.022;12.066;2023-03-01T01:27:50;1.00;99.90
56076;DHT22;41951;49.022;12.066;2023-03-01T01:30:16;1.00;99.90
56076;DHT22;41951;49.022;12.066;2023-03-01T01:32:42;1.00;99.90
56076;DHT22;41951;49.022;12.066;2023-03-01T01:35:08;1.00;99.90
56076;DHT22;41951;49.022;12.066;2023-03-01T01:37:33;0.90;99.90
56076;DHT22;41951;49.022;12.066;2023-03-01T01:40:00;0.90;99.90
56076;DHT22;41951;49.022;12.066;2023-03-01T01:42:27;0.90;99.90
56076;DHT22;41951;49.022;12.066;2023-03-01T01:47:49;0.90;99.90
56076;DHT22;41951;49.022;12.066;2023-03-01T01:50:17;0.90;99.90
56076;DHT22;41951;49.022;12.066;2023-03-01T01:52:44;0.80;99.90
56076;DHT22;41951;49.022;12.066;2023-03-01T01:55:14;0.80;99.90
56076;DHT22;41951;49.022;12.066;2023-03-01T01:57:46;0.80;99.90
56076;DHT22;41951;49.022;12.066;2023-03-01T02:00:24;0.80;99.90
56076;DHT22;41951;49.022;12.066;2023-03-01T02:02:54;0.80;99.90
56076;DHT22;41951;49.022;12.066;2023-03-01T02:08:12;0.70;99.90
56076;DHT22;41951;49.022;12.066;2023-03-01T02:10:39;0.70;99.90
56076;DHT22;41951;49.022;12.066;2023-03-01T02:13:06;0.70;99.90
56076;DHT22;41951;49.022;12.066;2023-03-01T02:15:34;0.70;99.90
56076;DHT22;41951;49.022;12.066;2023-03-01T02:18:01;0.70;99.90
56076;DHT22;41951;49.022;12.066;2023-03-01T02:20:34;0.70;99.90
56076;DHT22;41951;49.022;12.066;2023-03-01T02:23:03;0.60;99.90
56076;DHT22;41951;49.022;12.066;2023-03-01T02:30:45;0.50;99.90
56076;DHT22;41951;49.022;12.066;2023-03-01T02:33:32;0.50;99.90
56076;DHT22;41951;49.022;12.066;2023-03-01T02:36:05;0.50;99.90
56076;DHT22;41951;49.022;12.066;2023-03-01T02:38:32;0.50;99.90
56076;DHT22;41951;49.022;12.066;2023-03-01T02:40:58;0.60;99.90
56076;DHT22;41951;49.022;12.066;2023-03-01T02:43:29;0.50;99.90
56076;DHT22;41951;49.022;12.066;2023-03-01T02:46:04;0.50;99.90
56076;DHT22;41951;49.022;12.066;2023-03-01T02:48:46;0.50;99.90
56076;DHT22;41951;49.022;12.066;2023-03-01T02:54:41;0.40;99.90
56076;DHT22;41951;49.022;12.066;2023-03-01T02:57:09;0.40;99.90
56076;DHT22;41951;49.022;12.066;2023-03-01T02:59:37;0.40;99.90
56076;DHT22;41951;49.022;12.066;2023-03-01T03:02:19;0.40;99.90
56076;DHT22;41951;49.022;12.066;2023-03-01T03:05:09;0.40;99.90
56076;DHT22;41951;49.022;12.066;2023-03-01T03:07:37;0.40;99.90
56076;DHT22;41951;49.022;12.066;2023-03-01T03:10:04;0.40;99.90
56076;DHT22;41951;49.022;12.066;2023-03-01T03:12:30;0.40;99.90
56076;DHT22;41951;49.022;12.066;2023-03-01T03:14:55;0.40;99.90
56076;DHT22;41951;49.022;12.066;2023-03-01T03:17:21;0.40;99.90
56076;DHT22;41951;49.022;12.066;2023-03-01T03:19:46;0.40;99.90
56076;DHT22;41951;49.022;12.066;2023-03-01T03:22:12;0.30;99.90
56076;DHT22;41951;49.022;12.066;2023-03-01T03:24:38;0.40;99.90
56076;DHT22;41951;49.022;12.066;2023-03-01T03:27:05;0.40;99.90
56076;DHT22;41951;49.022;12.066;2023-03-01T03:29:31;0.30;99.90
56076;DHT22;41951;49.022;12.066;2023-03-01T03:31:57;0.30;99.90
56076;DHT22;41951;49.022;12.066;2023-03-01T03:34:22;0.30;99.90
56076;DHT22;41951;49.022;12.066;2023-03-01T03:36:52;0.30;99.90
56076;DHT22;41951;49.022;12.066;2023-03-01T03:39:22;0.30;99.90
56076;DHT22;41951;49.022;12.066;2023-03-01T03:41:48;0.30;99.90
56076;DHT22;41951;49.022;12.066;2023-03-01T03:44:14;0.20;99.90
56076;DHT22;41951;49.022;12.066;2023-03-01T03:46:39;0.20;99.90
56076;DHT22;41951;49.022;12.066;2023-03-01T03:49:05;0.20;99.90
56076;DHT22;41951;49.022;12.066;2023-03-01T03:51:30;0.20;99.90
56076;DHT22;41951;49.022;12.066;2023-03-01T03:53:56;0.20;99.90
56076;DHT22;41951;49.022;12.066;2023-03-01T03:56:22;0.20;99.90
56076;DHT22;41951;49.022;12.066;2023-03-01T03:58:52;0.20;99.90
56076;DHT22;41951;49.022;12.066;2023-03-01T04:01:18;0.20;99.90
56076;DHT22;41951;49.022;12.066;2023-03-01T04:03:43;0.20;99.90
56076;DHT22;41951;49.022;12.066;2023-03-01T04:06:13;0.20;99.90
56076;DHT22;41951;49.022;12.066;2023-03-01T04:08:38;0.10;99.90
56076;DHT22;41951;49.022;12.066;2023-03-01T04:11:05;0.10;99.90
56076;DHT22;41951;49.022;12.066;2023-03-01T04:13:51;0.10;99.90
56076;DHT22;41951;49.022;12.066;2023-03-01T04:16:16;0.10;99.90
56076;DHT22;41951;49.022;12.066;2023-03-01T04:18:43;0.10;99.90
56076;DHT22;41951;49.022;12.066;2023-03-01T04:21:09;0.10;99.90
56076;DHT22;41951;49.022;12.066;2023-03-01T04:23:35;0.10;99.90
56076;DHT22;41951;49.022;12.066;2023-03-01T04:26:01;0.10;99.90
56076;DHT22;41951;49.022;12.066;2023-03-01T04:30:55;0.00;99.90
56076;DHT22;41951;49.022;12.066;2023-03-01T04:33:21;0.00;99.90
56076;DHT22;41951;49.022;12.066;2023-03-01T04:35:47;0.00;99.90
56076;DHT22;41951;49.022;12.066;2023-03-01T04:38:17;0.00;99.90
56076;DHT22;41951;49.022;12.066;2023-03-01T04:40:43;0.00;99.90
56076;DHT22;41951;49.022;12.066;2023-03-01T04:43:09;0.00;99.90
56076;DHT22;41951;49.022;12.066;2023-03-01T04:45:35;-0.10;99.90
56076;DHT22;41951;49.022;12.066;2023-03-01T04:48:02;0.00;99.90
56076;DHT22;41951;49.022;12.066;2023-03-01T04:50:28;0.00;99.90
56076;DHT22;41951;49.022;12.066;2023-03-01T04:52:54;-0.10;99.90
56076;DHT22;41951;49.022;12.066;2023-03-01T04:55:24;-0.10;99.90
56076;DHT22;41951;49.022;12.066;2023-03-01T04:57:51;-0.10;99.90
56076;DHT22;41951;49.022;12.066;2023-03-01T05:00:16;-0.10;99.90
56076;DHT22;41951;49.022;12.066;2023-03-01T05:02:52;-0.20;99.90
56076;DHT22;41951;49.022;12.066;2023-03-01T05:05:24;-0.30;99.90
56076;DHT22;41951;49.022;12.066;2023-03-01T05:08:01;-0.30;99.90
56076;DHT22;41951;49.022;12.066;2023-03-01T05:10:29;-0.30;99.90
56076;DHT22;41951;49.022;12.066;2023-03-01T05:12:59;-0.30;99.90
56076;DHT22;41951;49.022;12.066;2023-03-01T05:15:26;-0.20;99.90
56076;DHT22;41951;49.022;12.066;2023-03-01T05:17:55;-0.20;99.90
56076;DHT22;41951;49.022;12.066;2023-03-01T05:20:21;-0.20;99.90
56076;DHT22;41951;49.022;12.066;2023-03-01T05:22:51;-0.20;99.90
56076;DHT22;41951;49.022;12.066;2023-03-01T05:25:17;-0.20;99.90
56076;DHT22;41951;49.022;12.066;2023-03-01T05:27:43;-0.20;99.90
56076;DHT22;41951;49.022;12.066;2023-03-01T05:30:09;-0.20;99.90
56076;DHT22;41951;49.022;12.066;2023-03-01T05:32:42;-0.30;99.90
56076;DHT22;41951;49.022;12.066;2023-03-01T05:35:10;-0.30;99.90
56076;DHT22;41951;49.022;12.066;2023-03-01T05:37:39;-0.30;99.90
56076;DHT22;41951;49.022;12.066;2023-03-01T05:40:05;-0.30;99.90
56076;DHT22;41951;49.022;12.066;2023-03-01T05:42:33;-0.40;99.90
56076;DHT22;41951;49.022;12.066;2023-03-01T05:44:58;-0.40;99.90
56076;DHT22;41951;49.022;12.066;2023-03-01T05:47:24;-0.50;99.90
56076;DHT22;41951;49.022;12.066;2023-03-01T05:49:49;-0.50;99.90
56076;DHT22;41951;49.022;12.066;2023-03-01T05:52:15;-0.40;99.90
56076;DHT22;41951;49.022;12.066;2023-03-01T05:54:41;-0.40;99.90
56076;DHT22;41951;49.022;12.066;2023-03-01T05:57:06;-0.40;99.90
56076;DHT22;41951;49.022;12.066;2023-03-01T05:59:32;-0.50;99.90
56076;DHT22;41951;49.022;12.066;2023-03-01T06:01:57;-0.50;99.90
56076;DHT22;41951;49.022;12.066;2023-03-01T06:04:23;-0.50;99.90
56076;DHT22;41951;49.022;12.066;2023-03-01T06:06:48;-0.50;99.90
56076;DHT22;41951;49.022;12.066;2023-03-01T06:09:14;-0.50;99.90
56076;DHT22;41951;49.022;12.066;2023-03-01T06:11:40;-0.90;99.90
56076;DHT22;41951;49.022;12.066;2023-03-01T06:14:06;-0.40;99.90
56076;DHT22;41951;49.022;12.066;2023-03-01T06:16:33;-0.40;99.90
56076;DHT22;41951;49.022;12.066;2023-03-01T06:18:58;-0.40;99.90
56076;DHT22;41951;49.022;12.066;2023-03-01T06:21:24;-0.40;99.90
56076;DHT22;41951;49.022;12.066;2023-03-01T06:23:49;-0.40;99.90
56076;DHT22;41951;49.022;12.066;2023-03-01T06:26:15;-0.30;99.90
56076;DHT22;41951;49.022;12.066;2023-03-01T06:28:40;-0.40;99.90
56076;DHT22;41951;49.022;12.066;2023-03-01T06:31:06;-0.30;99.90
56076;DHT22;41951;49.022;12.066;2023-03-01T06:33:34;-0.30;99.90
56076;DHT22;41951;49.022;12.066;2023-03-01T06:35:59;-0.20;99.90
56076;DHT22;41951;49.022;12.066;2023-03-01T06:38:25;-0.20;99.90
56076;DHT22;41951;49.022;12.066;2023-03-01T06:40:54;-0.10;99.90
56076;DHT22;41951;49.022;12.066;2023-03-01T06:43:22;0.00;99.90
56076;DHT22;41951;49.022;12.066;2023-03-01T06:45:47;0.00;99.90
56076;DHT22;41951;49.022;12.066;2023-03-01T06:48:13;0.00;99.90
56076;DHT22;41951;49.022;12.066;2023-03-01T06:50:38;-0.10;99.90
56076;DHT22;41951;49.022;12.066;2023-03-01T06:53:04;-0.10;99.90
56076;DHT22;41951;49.022;12.066;2023-03-01T06:55:31;-0.20;99.90
56076;DHT22;41951;49.022;12.066;2023-03-01T06:57:57;-0.10;99.90
56076;DHT22;41951;49.022;12.066;2023-03-01T07:00:24;0.00;99.90
56076;DHT22;41951;49.022;12.066;2023-03-01T07:02:50;0.00;99.90
56076;DHT22;41951;49.022;12.066;2023-03-01T07:05:16;0.00;99.90
56076;DHT22;41951;49.022;12.066;2023-03-01T07:07:42;0.00;99.90
56076;DHT22;41951;49.022;12.066;2023-03-01T07:10:08;0.10;99.90
56076;DHT22;41951;49.022;12.066;2023-03-01T07:12:34;0.20;99.90
56076;DHT22;41951;49.022;12.066;2023-03-01T07:15:00;0.20;99.90
56076;DHT22;41951;49.022;12.066;2023-03-01T07:17:25;0.30;99.90
56076;DHT22;41951;49.022;12.066;2023-03-01T07:19:51;0.20;99.90
56076;DHT22;41951;49.022;12.066;2023-03-01T07:22:16;0.20;99.90
56076;DHT22;41951;49.022;12.066;2023-03-01T07:24:43;0.30;99.90
56076;DHT22;41951;49.022;12.066;2023-03-01T07:27:09;0.30;99.90
56076;DHT22;41951;49.022;12.066;2023-03-01T07:29:35;0.40;99.90
56076;DHT22;41951;49.022;12.066;2023-03-01T07:32:03;0.50;99.90
56076;DHT22;41951;49.022;12.066;2023-03-01T07:34:29;0.50;99.90
56076;DHT22;41951;49.022;12.066;2023-03-01T07:36:54;0.60;99.90
56076;DHT22;41951;49.022;12.066;2023-03-01T07:39:20;0.70;99.90
56076;DHT22;41951;49.022;12.066;2023-03-01T07:41:48;0.80;99.90
56076;DHT22;41951;49.022;12.066;2023-03-01T07:44:14;0.80;99.90
56076;DHT22;41951;49.022;12.066;2023-03-01T07:46:40;0.80;99.90
56076;DHT22;41951;49.022;12.066;2023-03-01T07:49:06;0.80;99.90
56076;DHT22;41951;49.022;12.066;2023-03-01T07:51:32;0.90;99.90
56076;DHT22;41951;49.022;12.066;2023-03-01T07:53:57;1.00;99.90
56076;DHT22;41951;49.022;12.066;2023-03-01T07:56:23;1.00;99.90
56076;DHT22;41951;49.022;12.066;2023-03-01T07:58:49;1.10;99.90
56076;DHT22;41951;49.022;12.066;2023-03-01T08:01:17;1.20;99.90
56076;DHT22;41951;49.022;12.066;2023-03-01T08:03:42;1.10;99.90
56076;DHT22;41951;49.022;12.066;2023-03-01T08:06:12;1.30;99.90
56076;DHT22;41951;49.022;12.066;2023-03-01T08:08:38;1.30;99.90
56076;DHT22;41951;49.022;12.066;2023-03-01T08:11:05;1.20;99.90
56076;DHT22;41951;49.022;12.066;2023-03-01T08:13:32;1.30;99.90
56076;DHT22;41951;49.022;12.066;2023-03-01T08:16:02;1.30;99.90
56076;DHT22;41951;49.022;12.066;2023-03-01T08:18:28;1.40;99.90
56076;DHT22;41951;49.022;12.066;2023-03-01T08:20:54;1.60;99.90
56076;DHT22;41951;49.022;12.066;2023-03-01T08:23:19;1.50;99.90
56076;DHT22;41951;49.022;12.066;2023-03-01T08:25:45;1.40;99.90
56076;DHT22;41951;49.022;12.066;2023-03-01T08:28:10;1.60;99.90
56076;DHT22;41951;49.022;12.066;2023-03-01T08:30:36;1.60;99.90
56076;DHT22;41951;49.022;12.066;2023-03-01T08:33:01;1.70;99.90
56076;DHT22;41951;49.022;12.066;2023-03-01T08:35:27;1.70;99.90
56076;DHT22;41951;49.022;12.066;2023-03-01T08:37:52;1.70;99.90
56076;DHT22;41951;49.022;12.066;2023-03-01T08:40:18;1.90;99.90
56076;DHT22;41951;49.022;12.066;2023-03-01T08:42:43;2.00;99.90
56076;DHT22;41951;49.022;12.066;2023-03-01T08:45:10;2.10;99.90
56076;DHT22;41951;49.022;12.066;2023-03-01T08:47:36;2.20;99.90
56076;DHT22;41951;49.022;12.066;2023-03-01T08:50:02;2.30;99.90
56076;DHT22;41951;49.022;12.066;2023-03-01T08:52:28;2.40;99.90
56076;DHT22;41951;49.022;12.066;2023-03-01T08:54:55;2.50;99.90
56076;DHT22;41951;49.022;12.066;2023-03-01T08:57:21;2.50;99.90
56076;DHT22;41951;49.022;12.066;2023-03-01T08:59:47;2.60;99.90
56076;DHT22;41951;49.022;12.066;2023-03-01T09:02:17;2.80;99.90
56076;DHT22;41951;49.022;12.066;2023-03-01T09:04:43;2.80;99.90
56076;DHT22;41951;49.022;12.066;2023-03-01T09:07:10;2.90;99.90
56076;DHT22;41951;49.022;12.066;2023-03-01T09:09:36;3.00;99.90
56076;DHT22;41951;49.022;12.066;2023-03-01T09:12:02;3.10;99.90
56076;DHT22;41951;49.022;12.066;2023-03-01T09:14:28;3.20;99.90
56076;DHT22;41951;49.022;12.066;2023-03-01T09:16:53;3.30;99.90
56076;DHT22;41951;49.022;12.066;2023-03-01T09:19:19;3.30;99.90
56076;DHT22;41951;49.022;12.066;2023-03-01T09:21:45;3.40;99.90
56076;DHT22;41951;49.022;12.066;2023-03-01T09:24:19;3.30;99.90
56076;DHT22;41951;49.022;12.066;2023-03-01T09:26:45;3.40;99.90
56076;DHT22;41951;49.022;12.066;2023-03-01T09:29:15;3.50;99.90
56076;DHT22;41951;49.022;12.066;2023-03-01T09:31:41;3.50;99.90
56076;DHT22;41951;49.022;12.066;2023-03-01T09:34:07;3.60;99.90
56076;DHT22;41951;49.022;12.066;2023-03-01T09:36:33;3.70;99.90
56076;DHT22;41951;49.022;12.066;2023-03-01T09:38:59;3.80;99.90
56076;DHT22;41951;49.022;12.066;2023-03-01T09:41:45;3.80;99.90
56076;DHT22;41951;49.022;12.066;2023-03-01T09:46:43;3.90;99.90
56076;DHT22;41951;49.022;12.066;2023-03-01T09:49:19;3.90;99.90
56076;DHT22;41951;49.022;12.066;2023-03-01T09:51:58;4.00;99.90
56076;DHT22;41951;49.022;12.066;2023-03-01T09:54:24;4.00;99.90
56076;DHT22;41951;49.022;12.066;2023-03-01T09:57:14;3.90;99.90
56076;DHT22;41951;49.022;12.066;2023-03-01T09:59:53;4.00;99.90
56076;DHT22;41951;49.022;12.066;2023-03-01T10:02:32;4.10;99.90
56076;DHT22;41951;49.022;12.066;2023-03-01T10:10:59;4.40;99.90
56076;DHT22;41951;49.022;12.066;2023-03-01T10:13:40;4.50;99.90
56076;DHT22;41951;49.022;12.066;2023-03-01T10:16:18;4.50;99.90
56076;DHT22;41951;49.022;12.066;2023-03-01T10:18:58;4.60;99.90
56076;DHT22;41951;49.022;12.066;2023-03-01T10:21:26;4.60;99.90
56076;DHT22;41951;49.022;12.066;2023-03-01T10:23:53;4.70;99.90
56076;DHT22;41951;49.022;12.066;2023-03-01T10:29:11;4.70;99.90
56076;DHT22;41951;49.022;12.066;2023-03-01T10:31:46;4.80;99.90
56076;DHT22;41951;49.022;12.066;2023-03-01T10:36:47;5.00;99.90
56076;DHT22;41951;49.022;12.066;2023-03-01T10:39:24;5.00;99.90
56076;DHT22;41951;49.022;12.066;2023-03-01T10:42:19;4.90;99.90
56076;DHT22;41951;49.022;12.066;2023-03-01T10:44:49;5.00;99.90
56076;DHT22;41951;49.022;12.066;2023-03-01T10:47:41;5.10;99.90
56076;DHT22;41951;49.022;12.066;2023-03-01T10:50:21;5.10;99.90
56076;DHT22;41951;49.022;12.066;2023-03-01T10:52:59;5.10;99.90
56076;DHT22;41951;49.022;12.066;2023-03-01T10:58:18;5.30;99.90
56076;DHT22;41951;49.022;12.066;2023-03-01T11:01:00;5.30;99.90
56076;DHT22;41951;49.022;12.066;2023-03-01T11:03:32;5.40;99.90
56076;DHT22;41951;49.022;12.066;2023-03-01T11:08:30;5.40;99.90
56076;DHT22;41951;49.022;12.066;2023-03-01T11:11:13;5.40;99.90
56076;DHT22;41951;49.022;12.066;2023-03-01T11:14:07;5.50;99.90
56076;DHT22;41951;49.022;12.066;2023-03-01T11:16:34;5.50;99.90
56076;DHT22;41951;49.022;12.066;2023-03-01T11:19:20;5.60;99.90
56076;DHT22;41951;49.022;12.066;2023-03-01T11:22:11;5.70;99.90
56076;DHT22;41951;49.022;12.066;2023-03-01T11:24:52;5.80;99.90
56076;DHT22;41951;49.022;12.066;2023-03-01T11:27:36;5.90;99.90
56076;DHT22;41951;49.022;12.066;2023-03-01T11:30:22;5.90;99.90
56076;DHT22;41951;49.022;12.066;2023-03-01T11:38:29;5.90;99.90
56076;DHT22;41951;49.022;12.066;2023-03-01T11:46:38;6.10;99.90
56076;DHT22;41951;49.022;12.066;2023-03-01T11:49:28;6.20;99.90
56076;DHT22;41951;49.022;12.066;2023-03-01T11:54:34;6.30;99.90
56076;DHT22;41951;49.022;12.066;2023-03-01T11:57:43;6.40;99.90
56076;DHT22;41951;49.022;12.066;2023-03-01T12:16:28;7.10;99.90
56076;DHT22;41951;49.022;12.066;2023-03-01T12:21:54;7.20;99.90
56076;DHT22;41951;49.022;12.066;2023-03-01T12:30:09;7.50;99.90
56076;DHT22;41951;49.022;12.066;2023-03-01T12:49:20;8.00;99.90
56076;DHT22;41951;49.022;12.066;2023-03-01T12:52:14;8.20;99.90
56076;DHT22;41951;49.022;12.066;2023-03-01T12:54:40;8.20;99.90
56076;DHT22;41951;49.022;12.066;2023-03-01T12:57:15;8.30;99.50
56076;DHT22;41951;49.022;12.066;2023-03-01T13:00:04;8.30;99.70
56076;DHT22;41951;49.022;12.066;2023-03-01T13:02:52;8.50;99.80
56076;DHT22;41951;49.022;12.066;2023-03-01T13:05:39;8.70;99.70
56076;DHT22;41951;49.022;12.066;2023-03-01T13:08:54;8.80;98.90
56076;DHT22;41951;49.022;12.066;2023-03-01T13:11:02;8.70;98.50
56076;DHT22;41951;49.022;12.066;2023-03-01T13:13:29;8.70;98.80
56076;DHT22;41951;49.022;12.066;2023-03-01T13:15:56;8.90;99.00
56076;DHT22;41951;49.022;12.066;2023-03-01T13:21:06;8.70;98.30
56076;DHT22;41951;49.022;12.066;2023-03-01T13:23:37;8.70;98.50
56076;DHT22;41951;49.022;12.066;2023-03-01T13:33:49;8.80;98.10
56076;DHT22;41951;49.022;12.066;2023-03-01T13:39:39;8.80;98.20
56076;DHT22;41951;49.022;12.066;2023-03-01T13:41:47;8.90;98.00
56076;DHT22;41951;49.022;12.066;2023-03-01T13:46:45;9.20;97.90
56076;DHT22;41951;49.022;12.066;2023-03-01T13:49:16;9.20;97.90
56076;DHT22;41951;49.022;12.066;2023-03-01T13:51:43;9.30;97.60
56076;DHT22;41951;49.022;12.066;2023-03-01T13:54:12;9.30;98.00
56076;DHT22;41951;49.022;12.066;2023-03-01T13:56:39;8.80;97.10
56076;DHT22;41951;49.022;12.066;2023-03-01T13:59:20;9.50;97.00
56076;DHT22;41951;49.022;12.066;2023-03-01T14:01:56;9.50;97.20
56076;DHT22;41951;49.022;12.066;2023-03-01T14:04:32;9.60;97.20
56076;DHT22;41951;49.022;12.066;2023-03-01T14:07:12;9.80;96.90
56076;DHT22;41951;49.022;12.066;2023-03-01T14:09:41;9.90;96.60
56076;DHT22;41951;49.022;12.066;2023-03-01T14:20:26;10.30;96.40
56076;DHT22;41951;49.022;12.066;2023-03-01T14:22:57;10.70;96.20
56076;DHT22;41951;49.022;12.066;2023-03-01T14:25:32;11.80;94.90
56076;DHT22;41951;49.022;12.066;2023-03-01T14:30:43;13.70;90.00
56076;DHT22;41951;49.022;12.066;2023-03-01T14:33:19;11.50;90.00
56076;DHT22;41951;49.022;12.066;2023-03-01T14:36:02;10.70;91.80
56076;DHT22;41951;49.022;12.066;2023-03-01T14:41:03;9.10;95.60
56076;DHT22;41951;49.022;12.066;2023-03-01T14:43:29;8.80;95.30
56076;DHT22;41951;49.022;12.066;2023-03-01T14:45:56;8.50;96.40
56076;DHT22;41951;49.022;12.066;2023-03-01T14:48:22;8.30;98.20
56076;DHT22;41951;49.022;12.066;2023-03-01T14:50:48;8.00;98.30
56076;DHT22;41951;49.022;12.066;2023-03-01T14:53:21;7.90;99.20
56076;DHT22;41951;49.022;12.066;2023-03-01T14:55:52;7.90;99.30
56076;DHT22;41951;49.022;12.066;2023-03-01T14:58:21;7.80;99.90
56076;DHT22;41951;49.022;12.066;2023-03-01T15:00:54;7.80;99.90
56076;DHT22;41951;49.022;12.066;2023-03-01T15:03:28;7.70;99.90
56076;DHT22;41951;49.022;12.066;2023-03-01T15:05:55;7.70;99.90
56076;DHT22;41951;49.022;12.066;2023-03-01T15:08:24;7.60;99.90
56076;DHT22;41951;49.022;12.066;2023-03-01T15:13:54;7.50;99.90
56076;DHT22;41951;49.022;12.066;2023-03-01T15:16:26;7.50;99.90
56076;DHT22;41951;49.022;12.066;2023-03-01T15:18:55;7.40;99.90
56076;DHT22;41951;49.022;12.066;2023-03-01T15:21:24;7.40;99.90
56076;DHT22;41951;49.022;12.066;2023-03-01T15:23:54;7.30;99.90
56076;DHT22;41951;49.022;12.066;2023-03-01T15:26:24;7.30;99.90
56076;DHT22;41951;49.022;12.066;2023-03-01T15:28:52;7.30;99.90
56076;DHT22;41951;49.022;12.066;2023-03-01T15:31:26;7.20;99.90
56076;DHT22;41951;49.022;12.066;2023-03-01T15:33:52;7.20;99.90
56076;DHT22;41951;49.022;12.066;2023-03-01T15:36:45;7.10;99.90
56076;DHT22;41951;49.022;12.066;2023-03-01T15:42:07;7.00;99.90
56076;DHT22;41951;49.022;12.066;2023-03-01T15:44:35;7.00;99.90
56076;DHT22;41951;49.022;12.066;2023-03-01T15:47:04;7.00;99.90
56076;DHT22;41951;49.022;12.066;2023-03-01T15:49:36;7.00;99.90
56076;DHT22;41951;49.022;12.066;2023-03-01T15:52:03;6.90;99.90
56076;DHT22;41951;49.022;12.066;2023-03-01T15:54:30;6.90;99.90
56076;DHT22;41951;49.022;12.066;2023-03-01T15:56:56;6.90;99.90
56076;DHT22;41951;49.022;12.066;2023-03-01T15:59:22;6.80;99.90
56076;DHT22;41951;49.022;12.066;2023-03-01T16:01:48;6.70;99.90
56076;DHT22;41951;49.022;12.066;2023-03-01T16:04:17;6.70;99.90
56076;DHT22;41951;49.022;12.066;2023-03-01T16:06:48;6.60;99.90
56076;DHT22;41951;49.022;12.066;2023-03-01T16:09:20;6.60;99.90
56076;DHT22;41951;49.022;12.066;2023-03-01T16:11:46;6.60;99.90
56076;DHT22;41951;49.022;12.066;2023-03-01T16:14:12;6.50;99.90
56076;DHT22;41951;49.022;12.066;2023-03-01T16:16:37;6.50;99.90
56076;DHT22;41951;49.022;12.066;2023-03-01T16:19:03;6.50;99.90
56076;DHT22;41951;49.022;12.066;2023-03-01T16:21:28;6.40;99.90
56076;DHT22;41951;49.022;12.066;2023-03-01T16:23:54;6.30;99.90
56076;DHT22;41951;49.022;12.066;2023-03-01T16:26:20;6.30;99.90
56076;DHT22;41951;49.022;12.066;2023-03-01T16:28:46;6.30;99.90
56076;DHT22;41951;49.022;12.066;2023-03-01T16:31:11;6.20;99.90
56076;DHT22;41951;49.022;12.066;2023-03-01T16:33:39;6.20;99.90
56076;DHT22;41951;49.022;12.066;2023-03-01T16:36:10;6.20;99.90
56076;DHT22;41951;49.022;12.066;2023-03-01T16:38:37;6.10;99.90
56076;DHT22;41951;49.022;12.066;2023-03-01T16:41:03;6.00;99.90
56076;DHT22;41951;49.022;12.066;2023-03-01T16:43:29;6.10;99.90
56076;DHT22;41951;49.022;12.066;2023-03-01T16:45:55;6.00;99.90
56076;DHT22;41951;49.022;12.066;2023-03-01T16:48:21;6.00;99.90
56076;DHT22;41951;49.022;12.066;2023-03-01T16:50:59;5.90;99.90
56076;DHT22;41951;49.022;12.066;2023-03-01T16:53:25;5.80;99.90
56076;DHT22;41951;49.022;12.066;2023-03-01T16:55:58;5.80;99.90
56076;DHT22;41951;49.022;12.066;2023-03-01T16:58:24;5.80;99.90
56076;DHT22;41951;49.022;12.066;2023-03-01T17:00:54;5.70;99.90
56076;DHT22;41951;49.022;12.066;2023-03-01T17:03:24;5.70;99.90
56076;DHT22;41951;49.022;12.066;2023-03-01T17:05:51;5.70;99.90
56076;DHT22;41951;49.022;12.066;2023-03-01T17:08:17;5.60;99.90
56076;DHT22;41951;49.022;12.066;2023-03-01T17:10:43;5.60;99.90
56076;DHT22;41951;49.022;12.066;2023-03-01T17:13:09;5.50;99.90
56076;DHT22;41951;49.022;12.066;2023-03-01T17:15:41;5.50;99.90
56076;DHT22;41951;49.022;12.066;2023-03-01T17:18:08;5.50;99.90
56076;DHT22;41951;49.022;12.066;2023-03-01T17:20:34;5.40;99.90
56076;DHT22;41951;49.022;12.066;2023-03-01T17:23:00;5.50;99.90
56076;DHT22;41951;49.022;12.066;2023-03-01T17:25:26;5.40;99.90
56076;DHT22;41951;49.022;12.066;2023-03-01T17:27:51;5.30;99.90
56076;DHT22;41951;49.022;12.066;2023-03-01T17:30:17;5.40;99.90
56076;DHT22;41951;49.022;12.066;2023-03-01T17:32:43;5.40;99.90
56076;DHT22;41951;49.022;12.066;2023-03-01T17:35:09;5.30;99.90
56076;DHT22;41951;49.022;12.066;2023-03-01T17:37:38;5.20;99.90
56076;DHT22;41951;49.022;12.066;2023-03-01T17:40:05;5.30;99.90
56076;DHT22;41951;49.022;12.066;2023-03-01T17:42:31;5.30;99.90
56076;DHT22;41951;49.022;12.066;2023-03-01T17:44:57;5.20;99.90
56076;DHT22;41951;49.022;12.066;2023-03-01T17:47:23;5.20;99.90
56076;DHT22;41951;49.022;12.066;2023-03-01T17:49:49;5.20;99.90